createdAt,value
2022-08-29T00:01:18.299Z,8.32
2022-08-29T00:03:45.498Z,8.85
2022-08-29T00:06:12.665Z,9.27
2022-08-29T00:08:39.823Z,9.85
2022-08-29T00:11:07.462Z,9.60
2022-08-29T00:13:35.380Z,12.43
2022-08-29T00:16:02.872Z,15.93
2022-08-29T00:18:30.592Z,20.48
2022-08-29T00:20:57.899Z,17.75
2022-08-29T00:23:25.334Z,14.15
2022-08-29T00:25:52.605Z,13.48
2022-08-29T00:28:20.682Z,10.57
2022-08-29T00:30:48.921Z,8.47
2022-08-29T00:33:17.054Z,12.10
2022-08-29T00:35:45.968Z,14.13
2022-08-29T00:38:16.501Z,11.23
2022-08-29T00:40:53.188Z,9.07
2022-08-29T00:43:24.852Z,12.10
2022-08-29T00:46:25.204Z,13.38
2022-08-29T00:49:40.476Z,11.52
2022-08-29T00:52:40.251Z,11.05
2022-08-29T00:55:13.184Z,13.15
2022-08-29T00:57:47.395Z,12.00
2022-08-29T01:00:16.518Z,9.45
2022-08-29T01:02:45.264Z,11.20
2022-08-29T01:05:16.636Z,11.15
2022-08-29T01:07:46.602Z,14.45
2022-08-29T01:10:35.563Z,16.25
2022-08-29T01:13:04.594Z,17.45
2022-08-29T01:15:33.052Z,18.92
2022-08-29T01:18:02.417Z,17.98
2022-08-29T01:21:10.215Z,16.88
2022-08-29T01:23:47.024Z,17.40
2022-08-29T01:26:14.255Z,19.02
2022-08-29T01:28:46.592Z,21.30
2022-08-29T01:31:37.421Z,16.67
2022-08-29T01:34:16.806Z,15.70
2022-08-29T01:36:49.870Z,14.63
2022-08-29T01:39:19.707Z,14.88
2022-08-29T01:41:47.294Z,12.77
2022-08-29T01:44:18.832Z,13.02
2022-08-29T01:46:49.400Z,14.98
2022-08-29T01:49:18.961Z,14.30
2022-08-29T01:51:46.169Z,14.85
2022-08-29T01:54:14.975Z,13.82
2022-08-29T01:59:15.177Z,13.55
2022-08-29T02:01:51.400Z,12.10
2022-08-29T02:04:18.741Z,12.05
2022-08-29T02:06:46.018Z,12.50
2022-08-29T02:09:13.131Z,14.15
2022-08-29T02:11:40.671Z,15.05
2022-08-29T02:14:08.226Z,16.63
2022-08-29T02:16:43.810Z,17.65
2022-08-29T02:19:10.936Z,18.27
2022-08-29T02:21:38.901Z,16.13
2022-08-29T02:24:24.049Z,15.33
2022-08-29T02:26:54.083Z,16.83
2022-08-29T02:31:48.780Z,16.00
2022-08-29T02:34:17.175Z,15.43
2022-08-29T02:36:44.787Z,13.88
2022-08-29T02:39:15.876Z,13.90
2022-08-29T02:41:44.371Z,11.25
2022-08-29T02:46:39.151Z,8.90
2022-08-29T02:49:06.365Z,8.57
2022-08-29T02:51:34.745Z,9.10
2022-08-29T02:54:03.303Z,10.15
2022-08-29T02:56:30.846Z,8.15
2022-08-29T02:58:59.189Z,10.07
2022-08-29T03:01:26.741Z,7.90
2022-08-29T03:03:54.241Z,10.35
2022-08-29T03:06:21.646Z,11.27
2022-08-29T03:08:50.012Z,10.25
2022-08-29T03:11:17.671Z,10.13
2022-08-29T03:13:46.089Z,9.80
2022-08-29T03:16:14.077Z,10.52
2022-08-29T03:18:41.585Z,12.23
2022-08-29T03:21:20.980Z,12.88
2022-08-29T03:23:49.793Z,11.77
2022-08-29T03:26:17.921Z,13.65
2022-08-29T03:28:45.450Z,12.90
2022-08-29T03:31:13.146Z,11.30
2022-08-29T03:33:41.168Z,9.70
2022-08-29T03:36:14.214Z,11.13
2022-08-29T03:38:43.743Z,11.00
2022-08-29T03:41:11.734Z,9.40
2022-08-29T03:43:39.244Z,9.10
2022-08-29T03:46:06.461Z,8.73
2022-08-29T03:48:33.653Z,9.50
2022-08-29T03:51:00.850Z,8.60
2022-08-29T03:53:28.117Z,7.40
2022-08-29T03:55:55.690Z,7.45
2022-08-29T03:58:23.019Z,6.57
2022-08-29T04:00:50.196Z,6.90
2022-08-29T04:03:19.379Z,7.30
2022-08-29T04:05:46.808Z,6.18
2022-08-29T04:08:18.716Z,7.70
2022-08-29T04:10:45.874Z,7.20
2022-08-29T04:13:13.161Z,6.63
2022-08-29T04:15:41.633Z,8.43
2022-08-29T04:18:10.465Z,7.22
2022-08-29T04:23:13.212Z,9.10
2022-08-29T04:25:42.853Z,8.27
2022-08-29T04:28:13.341Z,10.82
2022-08-29T04:30:51.381Z,18.98
2022-08-29T04:33:22.717Z,21.67
2022-08-29T04:35:51.999Z,22.65
2022-08-29T04:38:20.037Z,19.02
2022-08-29T04:40:47.429Z,14.27
2022-08-29T04:43:14.617Z,14.88
2022-08-29T04:45:42.079Z,16.15
2022-08-29T04:48:10.205Z,17.13
2022-08-29T04:50:37.538Z,16.13
2022-08-29T04:53:04.689Z,18.05
2022-08-29T04:55:32.390Z,16.77
2022-08-29T04:57:59.642Z,19.33
2022-08-29T05:00:28.840Z,20.88
2022-08-29T05:02:58.860Z,24.92
2022-08-29T05:05:26.781Z,19.55
2022-08-29T05:07:54.494Z,20.83
2022-08-29T05:10:22.230Z,20.33
2022-08-29T05:12:49.519Z,19.92
2022-08-29T05:15:18.061Z,22.85
2022-08-29T05:20:13.516Z,21.05
2022-08-29T05:22:42.338Z,20.48
2022-08-29T05:25:17.314Z,18.60
2022-08-29T05:27:46.390Z,18.98
2022-08-29T05:30:15.692Z,16.63
2022-08-29T05:32:43.094Z,17.75
2022-08-29T05:35:10.423Z,15.48
2022-08-29T05:37:38.100Z,16.33
2022-08-29T05:40:05.899Z,17.08
2022-08-29T05:42:33.513Z,18.10
2022-08-29T05:45:02.236Z,18.85
2022-08-29T05:47:31.479Z,17.00
2022-08-29T05:49:59.252Z,14.43
2022-08-29T05:52:27.883Z,10.82
2022-08-29T05:54:55.073Z,10.18
2022-08-29T05:57:23.346Z,9.07
2022-08-29T05:59:53.185Z,8.68
2022-08-29T06:02:21.963Z,9.32
2022-08-29T06:04:49.818Z,9.25
2022-08-29T06:07:17.245Z,9.60
2022-08-29T06:09:45.301Z,10.40
2022-08-29T06:12:15.017Z,11.80
2022-08-29T06:14:50.703Z,11.13
2022-08-29T06:17:18.469Z,10.48
2022-08-29T06:19:49.167Z,10.30
2022-08-29T06:22:18.615Z,11.45
2022-08-29T06:24:46.153Z,11.77
2022-08-29T06:27:14.423Z,9.73
2022-08-29T06:29:43.443Z,14.10
2022-08-29T06:32:12.429Z,15.48
2022-08-29T06:34:39.999Z,15.57
2022-08-29T06:37:07.150Z,18.50
2022-08-29T06:39:34.526Z,16.07
2022-08-29T06:42:01.641Z,15.45
2022-08-29T06:44:31.317Z,13.40
2022-08-29T06:46:59.107Z,13.68
2022-08-29T06:49:27.078Z,13.77
2022-08-29T06:51:57.948Z,11.18
2022-08-29T06:54:28.520Z,10.60
2022-08-29T06:56:57.357Z,12.05
2022-08-29T06:59:25.207Z,11.05
2022-08-29T07:01:54.417Z,17.95
2022-08-29T07:04:21.713Z,19.92
2022-08-29T07:06:50.192Z,16.30
2022-08-29T07:09:17.668Z,12.05
2022-08-29T07:11:44.816Z,14.57
2022-08-29T07:14:12.426Z,16.58
2022-08-29T07:19:09.623Z,16.70
2022-08-29T07:21:37.883Z,18.30
2022-08-29T07:24:06.226Z,16.38
2022-08-29T07:26:40.708Z,15.10
2022-08-29T07:29:16.947Z,10.55
2022-08-29T07:31:44.440Z,9.57
2022-08-29T07:34:11.756Z,8.73
2022-08-29T07:36:39.505Z,9.07
2022-08-29T07:39:16.381Z,9.05
2022-08-29T07:41:44.741Z,9.10
2022-08-29T07:44:12.973Z,6.30
2022-08-29T07:46:40.947Z,5.93
2022-08-29T07:49:08.453Z,5.82
2022-08-29T07:51:36.054Z,4.72
2022-08-29T07:54:04.838Z,5.88
2022-08-29T07:56:40.836Z,6.00
2022-08-29T07:59:08.989Z,6.97
2022-08-29T08:04:04.294Z,6.63
2022-08-29T08:06:34.345Z,6.60
2022-08-29T08:09:02.124Z,5.80
2022-08-29T08:11:29.415Z,9.90
2022-08-29T08:13:57.106Z,4.78
2022-08-29T08:16:27.425Z,6.00
2022-08-29T08:18:55.758Z,4.28
2022-08-29T08:21:25.080Z,4.95
2022-08-29T08:23:53.046Z,6.05
2022-08-29T08:26:20.764Z,6.03
2022-08-29T08:28:48.073Z,4.82
2022-08-29T08:31:19.744Z,5.10
2022-08-29T08:33:47.681Z,5.05
2022-08-29T08:36:19.812Z,5.35
2022-08-29T08:38:48.810Z,4.95
2022-08-29T08:42:04.903Z,5.25
2022-08-29T08:44:51.089Z,4.45
2022-08-29T08:47:29.640Z,5.47
2022-08-29T08:50:45.497Z,5.05
2022-08-29T08:53:29.925Z,6.00
2022-08-29T08:55:59.334Z,5.93
2022-08-29T08:58:36.307Z,4.55
2022-08-29T09:01:26.018Z,6.70
2022-08-29T09:04:30.936Z,7.32
2022-08-29T09:07:43.929Z,6.47
2022-08-29T09:10:32.345Z,5.50
2022-08-29T09:13:14.498Z,5.13
2022-08-29T09:15:46.802Z,6.80
2022-08-29T09:18:40.408Z,7.22
2022-08-29T09:21:39.432Z,5.35
2022-08-29T09:24:08.427Z,5.60
2022-08-29T09:26:35.704Z,5.78
2022-08-29T09:29:02.901Z,5.60
2022-08-29T09:31:33.673Z,4.85
2022-08-29T09:34:14.829Z,6.18
2022-08-29T09:36:52.338Z,4.97
2022-08-29T09:39:29.391Z,4.53
2022-08-29T09:42:11.690Z,4.32
2022-08-29T09:44:40.749Z,5.55
2022-08-29T09:47:19.433Z,5.28
2022-08-29T09:50:26.381Z,4.68
2022-08-29T09:53:00.852Z,5.00
2022-08-29T09:55:38.474Z,4.68
2022-08-29T09:58:17.664Z,4.35
2022-08-29T10:01:06.436Z,5.00
2022-08-29T10:03:41.218Z,5.10
2022-08-29T10:06:27.602Z,4.43
2022-08-29T10:09:09.533Z,6.40
2022-08-29T10:11:56.324Z,3.90
2022-08-29T10:14:39.685Z,4.05
2022-08-29T10:17:56.454Z,4.47
2022-08-29T10:20:47.905Z,4.53
2022-08-29T10:23:51.862Z,4.32
2022-08-29T10:26:43.650Z,3.95
2022-08-29T10:29:39.494Z,5.07
2022-08-29T10:32:36.872Z,4.25
2022-08-29T10:35:19.224Z,4.32
2022-08-29T10:38:15.617Z,4.70
2022-08-29T10:40:51.013Z,5.30
2022-08-29T10:43:55.273Z,5.38
2022-08-29T10:46:51.283Z,7.05
2022-08-29T10:49:58.820Z,5.72
2022-08-29T10:53:03.477Z,4.40
2022-08-29T10:55:48.281Z,5.38
2022-08-29T10:58:53.075Z,4.50
2022-08-29T11:01:30.921Z,4.55
2022-08-29T11:04:19.640Z,5.78
2022-08-29T11:07:15.527Z,6.22
2022-08-29T11:09:54.714Z,5.05
2022-08-29T11:12:48.687Z,5.40
2022-08-29T11:15:39.193Z,5.80
2022-08-29T11:18:26.780Z,4.65
2022-08-29T11:21:18.477Z,5.68
2022-08-29T11:23:47.759Z,4.70
2022-08-29T11:26:42.858Z,5.60
2022-08-29T11:29:47.318Z,4.95
2022-08-29T11:32:38.734Z,3.72
2022-08-29T11:35:33.508Z,4.75
2022-08-29T11:38:29.150Z,5.43
2022-08-29T11:44:07.750Z,5.35
2022-08-29T11:46:42.662Z,5.13
2022-08-29T11:49:35.497Z,5.28
2022-08-29T11:52:10.209Z,4.72
2022-08-29T11:54:38.490Z,3.95
2022-08-29T11:57:05.722Z,4.95
2022-08-29T11:59:47.985Z,4.73
2022-08-29T12:02:27.457Z,4.28
2022-08-29T12:05:06.011Z,4.10
2022-08-29T12:07:40.109Z,4.65
2022-08-29T12:10:23.021Z,4.78
2022-08-29T12:13:03.045Z,5.10
2022-08-29T12:15:31.495Z,5.18
2022-08-29T12:18:21.863Z,5.65
2022-08-29T12:20:55.125Z,4.82
2022-08-29T12:23:36.474Z,5.80
2022-08-29T12:26:25.188Z,4.90
2022-08-29T12:29:01.078Z,5.07
2022-08-29T12:31:56.406Z,5.20
2022-08-29T12:35:18.024Z,4.05
2022-08-29T12:38:42.227Z,4.75
2022-08-29T12:41:49.545Z,5.60
2022-08-29T12:44:26.986Z,4.95
2022-08-29T12:47:02.845Z,4.78
2022-08-29T12:49:52.477Z,5.53
2022-08-29T12:52:33.515Z,5.00
2022-08-29T12:55:29.006Z,7.07
2022-08-29T12:57:57.591Z,5.30
2022-08-29T13:00:30.511Z,5.38
2022-08-29T13:03:09.771Z,6.05
2022-08-29T13:05:44.077Z,5.25
2022-08-29T13:08:25.199Z,6.95
2022-08-29T13:11:04.230Z,5.50
2022-08-29T13:13:31.553Z,5.25
2022-08-29T13:16:03.683Z,6.18
2022-08-29T13:18:33.767Z,6.13
2022-08-29T13:21:24.154Z,8.32
2022-08-29T13:24:18.690Z,6.57
2022-08-29T13:27:04.757Z,5.95
2022-08-29T13:29:40.197Z,6.00
2022-08-29T13:32:23.042Z,6.10
2022-08-29T13:35:15.298Z,5.60
2022-08-29T13:37:45.587Z,5.55
2022-08-29T13:40:45.945Z,6.43
2022-08-29T13:43:42.486Z,5.25
2022-08-29T13:46:29.675Z,5.50
2022-08-29T13:49:03.015Z,5.43
2022-08-29T13:51:30.583Z,5.70
2022-08-29T13:53:57.712Z,5.38
2022-08-29T13:56:32.670Z,5.47
2022-08-29T13:59:00.333Z,4.93
2022-08-29T14:02:07.135Z,5.45
2022-08-29T14:04:36.752Z,5.05
2022-08-29T14:07:02.517Z,4.50
2022-08-29T14:12:05.756Z,4.95
2022-08-29T14:14:32.991Z,4.78
2022-08-29T14:17:00.259Z,5.10
2022-08-29T14:19:29.036Z,5.13
2022-08-29T14:21:59.712Z,5.30
2022-08-29T14:24:32.940Z,5.05
2022-08-29T14:27:02.652Z,4.65
2022-08-29T14:29:31.974Z,4.95
2022-08-29T14:32:03.105Z,4.57
2022-08-29T14:34:32.346Z,5.55
2022-08-29T14:37:01.315Z,3.97
2022-08-29T14:39:29.071Z,5.50
2022-08-29T14:41:56.372Z,4.63
2022-08-29T14:44:23.951Z,6.33
2022-08-29T14:46:51.429Z,6.70
2022-08-29T14:49:19.170Z,4.95
2022-08-29T14:51:46.845Z,5.57
2022-08-29T14:54:15.805Z,4.75
2022-08-29T14:56:47.974Z,4.90
2022-08-29T14:59:18.741Z,4.60
2022-08-29T15:01:51.271Z,4.13
2022-08-29T15:04:27.456Z,6.95
2022-08-29T15:07:06.059Z,5.05
2022-08-29T15:09:34.110Z,5.72
2022-08-29T15:14:28.613Z,4.75
2022-08-29T15:16:55.793Z,4.80
2022-08-29T15:20:31.648Z,6.77
2022-08-29T15:22:11.144Z,6.38
2022-08-29T15:24:39.079Z,5.60
2022-08-29T15:29:36.749Z,5.38
2022-08-29T15:32:04.994Z,6.40
2022-08-29T15:34:32.857Z,5.95
2022-08-29T15:37:01.220Z,5.40
2022-08-29T15:39:28.749Z,5.38
2022-08-29T15:41:59.345Z,5.75
2022-08-29T15:44:28.287Z,5.45
2022-08-29T15:46:57.473Z,5.40
2022-08-29T15:49:26.296Z,5.47
2022-08-29T15:51:55.253Z,6.07
2022-08-29T15:54:24.660Z,6.32
2022-08-29T15:56:52.516Z,5.72
2022-08-29T15:59:35.819Z,5.53
2022-08-29T16:02:11.396Z,6.03
2022-08-29T16:04:44.108Z,5.90
2022-08-29T16:07:12.943Z,6.40
2022-08-29T16:09:40.873Z,5.63
2022-08-29T16:12:09.600Z,5.40
2022-08-29T16:17:24.881Z,5.07
2022-08-29T16:19:52.144Z,5.37
2022-08-29T16:22:20.385Z,5.47
2022-08-29T16:27:15.728Z,6.03
2022-08-29T16:29:42.892Z,5.88
2022-08-29T16:32:10.142Z,4.43
2022-08-29T16:34:37.727Z,6.33
2022-08-29T16:37:05.019Z,6.97
2022-08-29T16:39:32.106Z,5.57
2022-08-29T16:41:59.335Z,6.53
2022-08-29T16:44:26.916Z,6.32
2022-08-29T16:46:54.028Z,5.78
2022-08-29T16:49:21.227Z,7.05
2022-08-29T16:51:48.479Z,6.57
2022-08-29T16:54:15.848Z,5.87
2022-08-29T16:56:43.952Z,5.57
2022-08-29T16:59:11.979Z,5.28
2022-08-29T17:01:45.158Z,6.30
2022-08-29T17:04:17.987Z,5.97
2022-08-29T17:06:47.419Z,5.82
2022-08-29T17:09:17.318Z,6.07
2022-08-29T17:11:45.658Z,5.95
2022-08-29T17:14:14.569Z,7.05
2022-08-29T17:16:45.247Z,5.55
2022-08-29T17:19:14.226Z,5.45
2022-08-29T17:21:42.436Z,5.03
2022-08-29T17:26:42.262Z,6.63
2022-08-29T17:29:10.578Z,6.70
2022-08-29T17:34:07.932Z,5.65
2022-08-29T17:36:37.219Z,6.50
2022-08-29T17:39:06.067Z,6.05
2022-08-29T17:41:33.882Z,7.85
2022-08-29T17:44:04.146Z,7.28
2022-08-29T17:46:31.506Z,7.57
2022-08-29T17:48:58.881Z,8.07
2022-08-29T17:51:27.649Z,8.15
2022-08-29T17:53:55.826Z,7.30
2022-08-29T17:56:52.701Z,7.70
2022-08-29T17:59:21.255Z,6.72
2022-08-29T18:02:08.972Z,8.38
2022-08-29T18:04:36.651Z,7.38
2022-08-29T18:07:03.897Z,7.60
2022-08-29T18:09:31.134Z,7.72
2022-08-29T18:11:58.467Z,7.15
2022-08-29T18:14:26.712Z,5.93
2022-08-29T18:19:22.433Z,7.07
2022-08-29T18:21:52.449Z,6.75
2022-08-29T18:24:20.772Z,8.30
2022-08-29T18:29:17.756Z,19.42
2022-08-29T18:31:45.409Z,12.25
2022-08-29T18:34:14.588Z,9.52
2022-08-29T18:36:43.780Z,9.73
2022-08-29T18:39:13.094Z,8.85
2022-08-29T18:41:40.808Z,8.32
2022-08-29T18:44:09.493Z,8.55
2022-08-29T18:46:40.313Z,8.63
2022-08-29T18:49:07.928Z,7.82
2022-08-29T18:51:39.223Z,7.65
2022-08-29T18:54:08.961Z,6.78
2022-08-29T18:56:37.914Z,7.18
2022-08-29T18:59:05.080Z,7.22
2022-08-29T19:01:32.686Z,8.27
2022-08-29T19:04:01.944Z,7.65
2022-08-29T19:06:29.238Z,6.93
2022-08-29T19:08:57.007Z,8.63
2022-08-29T19:11:27.503Z,8.75
2022-08-29T19:13:54.790Z,8.55
2022-08-29T19:16:23.196Z,8.93
2022-08-29T19:18:50.713Z,7.10
2022-08-29T19:21:18.120Z,7.00
2022-08-29T19:23:52.053Z,9.60
2022-08-29T19:26:28.545Z,10.77
2022-08-29T19:28:59.246Z,8.82
2022-08-29T19:31:28.352Z,7.53
2022-08-29T19:33:55.765Z,8.38
2022-08-29T19:36:24.167Z,12.07
2022-08-29T19:41:19.345Z,8.18
2022-08-29T19:43:46.702Z,7.28
2022-08-29T19:46:20.768Z,9.35
2022-08-29T19:48:50.782Z,8.98
2022-08-29T19:51:21.502Z,9.07
2022-08-29T19:53:48.867Z,8.15
2022-08-29T19:56:17.466Z,7.28
2022-08-29T19:58:44.900Z,7.50
2022-08-29T20:01:12.269Z,7.65
2022-08-29T20:03:41.295Z,7.20
2022-08-29T20:06:09.353Z,7.38
2022-08-29T20:08:40.929Z,6.07
2022-08-29T20:11:14.499Z,5.85
2022-08-29T20:13:47.537Z,7.32
2022-08-29T20:16:22.903Z,7.32
2022-08-29T20:18:51.222Z,7.13
2022-08-29T20:26:19.913Z,7.32
2022-08-29T20:28:50.992Z,8.40
2022-08-29T20:31:20.052Z,8.45
2022-08-29T20:33:48.521Z,9.20
2022-08-29T20:36:39.616Z,9.13
2022-08-29T20:39:12.372Z,9.95
2022-08-29T20:41:39.633Z,9.90
2022-08-29T20:44:09.210Z,9.35
2022-08-29T20:46:41.708Z,9.38
2022-08-29T20:49:11.454Z,12.13
2022-08-29T20:51:39.461Z,10.52
2022-08-29T20:54:07.634Z,9.63
2022-08-29T20:56:34.873Z,8.88
2022-08-29T20:59:02.070Z,9.65
2022-08-29T21:01:29.272Z,10.93
2022-08-29T21:04:15.154Z,10.05
2022-08-29T21:06:59.591Z,9.88
2022-08-29T21:09:27.804Z,11.15
2022-08-29T21:11:55.732Z,9.05
2022-08-29T21:14:23.271Z,9.57
2022-08-29T21:16:52.051Z,9.30
2022-08-29T21:19:19.708Z,7.80
2022-08-29T21:21:47.165Z,7.63
2022-08-29T21:24:15.148Z,8.18
2022-08-29T21:26:42.299Z,7.68
2022-08-29T21:29:09.588Z,7.15
2022-08-29T21:31:37.638Z,7.28
2022-08-29T21:34:07.174Z,8.32
2022-08-29T21:36:35.952Z,8.48
2022-08-29T21:39:06.685Z,8.05
2022-08-29T21:41:38.615Z,8.10
2022-08-29T21:44:07.279Z,7.03
2022-08-29T21:46:42.671Z,8.27
2022-08-29T21:49:17.150Z,8.70
2022-08-29T21:51:46.380Z,8.75
2022-08-29T21:54:16.005Z,8.13
2022-08-29T21:56:44.296Z,7.70
2022-08-29T21:59:13.388Z,6.63
2022-08-29T22:01:43.122Z,8.48
2022-08-29T22:04:19.124Z,7.95
2022-08-29T22:06:56.007Z,9.43
2022-08-29T22:09:23.359Z,10.00
2022-08-29T22:11:50.928Z,7.95
2022-08-29T22:14:18.117Z,9.00
2022-08-29T22:16:45.242Z,8.52
2022-08-29T22:19:16.547Z,9.63
2022-08-29T22:21:47.861Z,9.88
2022-08-29T22:24:17.320Z,9.32
2022-08-29T22:26:45.344Z,9.15
2022-08-29T22:29:15.151Z,10.55
2022-08-29T22:31:43.445Z,9.05
2022-08-29T22:34:12.844Z,8.80
2022-08-29T22:36:40.029Z,8.25
2022-08-29T22:39:07.321Z,9.45
2022-08-29T22:41:35.445Z,9.82
2022-08-29T22:44:42.352Z,8.70
2022-08-29T22:46:52.118Z,10.18
2022-08-29T22:49:19.315Z,9.13
2022-08-29T22:51:47.576Z,8.93
2022-08-29T22:54:33.324Z,9.40
2022-08-29T22:57:06.694Z,8.25
2022-08-29T22:59:35.740Z,9.30
2022-08-29T23:02:03.531Z,10.30
2022-08-29T23:04:31.463Z,10.32
2022-08-29T23:06:59.358Z,11.48
2022-08-29T23:09:27.561Z,10.82
2022-08-29T23:12:01.298Z,11.48
2022-08-29T23:14:29.594Z,12.02
2022-08-29T23:16:56.721Z,10.63
2022-08-29T23:19:23.888Z,10.15
2022-08-29T23:21:50.979Z,10.60
2022-08-29T23:24:20.245Z,9.90
2022-08-29T23:26:48.206Z,10.82
2022-08-29T23:29:15.427Z,10.13
2022-08-29T23:31:42.619Z,9.77
2022-08-29T23:34:09.732Z,10.68
2022-08-29T23:36:37.472Z,10.55
2022-08-29T23:39:06.192Z,11.50
2022-08-29T23:44:02.249Z,10.85
2022-08-29T23:46:29.471Z,11.87
2022-08-29T23:48:57.714Z,11.98
2022-08-29T23:51:24.951Z,10.80
2022-08-29T23:53:52.124Z,11.77
2022-08-29T23:56:21.685Z,10.95
2022-08-29T23:58:49.536Z,11.45
